Terminal Aerodrome Forecast
Issued by NWS

Home | Current Version | Previous Version | Text Only | Print | Product List | Glossary On
Versions: 1 2 3 4 5 6 7 8 9 10 11 12 13 14 15 16 17 18 19 20
000
FTAK31 PAJN 231723
TAFAPG
TAF
PAPG 231723Z 2318/2418 09004KT P6SM VCSH SCT006 OVC070
     FM232000 VRB03KT 6SM -SNRA BR BKN035 OVC070
     FM240500 12005KT 3SM -SN BR BKN015 OVC025
     FM241600 14005KT 6SM -SN BKN025 OVC035
      AMD LTD TO CLD VIS AND WIND 2406/2415=

USA.gov is the U.S. government's official web portal to all federal, state and local government web resources and services.